Sinotrans Osaka — VRDM4 — position and weather

sailwx.info

Track history (hours):
 
Tides and Currents Weather Stations Pressure Air Temp Water Temp Dewpoint Dewpoint Depression Visibility Wind Speed Wind Dir Waves Ship Positions

Sinotrans Osaka

Last reported at 2018-Apr-25 15:26 UTC. Time now 2018-Apr-25 21:49 UTC.
Position N 35°01' E 129°07'.

Length 145 m; draft 7.5 m.

Type: Cargo ship. MMSI: 477107900.

Date/timePositionNaut miles runAvg speedWind from/ knotsBaromVisibWave heightAir tempDewpointWater temp
2018-Apr-25 15:26N 35°01' E 129°07'511.4
2018-Apr-25 15:00N 35°06' E 129°05'0 0.8
2018-Apr-25 14:30N 35°06' E 129°05'0 0.0
2018-Apr-25 14:00N 35°06' E 129°05'0 0.0
2018-Apr-25 13:30N 35°06' E 129°05'0 0.0
2018-Apr-25 13:00N 35°06' E 129°05'0 0.0
2018-Apr-25 12:30N 35°06' E 129°05'0 0.0
2018-Apr-25 12:00N 35°06' E 129°05'0 0.0
2018-Apr-25 11:27N 35°06' E 129°05'0 0.0
2018-Apr-25 11:00N 35°06' E 129°05'0 0.0
2018-Apr-25 10:30N 35°06' E 129°05'0 0.0
2018-Apr-25 09:57N 35°06' E 129°05'0 0.0
2018-Apr-25 09:27N 35°06' E 129°05'0 0.0
2018-Apr-25 09:00N 35°06' E 129°05'0 0.0
2018-Apr-25 08:30N 35°06' E 129°05'0 0.0
2018-Apr-25 08:00N 35°06' E 129°05'0 0.0
2018-Apr-25 07:27N 35°06' E 129°05'0 0.0
2018-Apr-25 06:57N 35°06' E 129°05'0 0.0
2018-Apr-25 06:30N 35°06' E 129°05'0 0.2
2018-Apr-25 06:00N 35°06' E 129°05'4 6.7
2018-Apr-25 05:27N 35°04' E 129°08'1 2.6
2018-Apr-25 05:00N 35°04' E 129°10'6110.2
2018-Apr-24 23:05N 34°32' E 130°12'213.5
2018-Apr-24 22:55N 34°30' E 130°14'513.4
2018-Apr-24 22:30N 34°26' E 130°18'713.4
2018-Apr-24 22:00N 34°21' E 130°23'713.5
2018-Apr-24 21:30N 34°16' E 130°29'713.5
2018-Apr-24 21:00N 34°12' E 130°35'713.6
2018-Apr-24 20:30N 34°07' E 130°42'714.2
2018-Apr-24 20:00N 34°03' E 130°48'713.1
2018-Apr-24 19:30N 33°57' E 130°52'510.4
2018-Apr-24 19:00N 33°58' E 130°58'713.6
2018-Apr-24 18:30N 33°56' E 131°06'815.1
2018-Apr-24 18:00N 33°52' E 131°13'815.5
2018-Apr-24 17:30N 33°50' E 131°22'815.3
2018-Apr-24 17:00N 33°49' E 131°31'815.1
2018-Apr-24 16:30N 33°47' E 131°40'612.3
2018-Apr-24 16:00N 33°42' E 131°45'714.2
2018-Apr-24 15:30N 33°36' E 131°49'714.2
2018-Apr-24 15:00N 33°30' E 131°54'714.0
2018-Apr-24 14:30N 33°24' E 131°57'713.9
2018-Apr-24 14:00N 33°18' E 132°01'713.9
2018-Apr-24 13:30N 33°12' E 132°06'64 9.2
2018-Apr-24 06:34N 32°45' E 133°15'26014.5
2018-Apr-23 12:37N 34°14' E 138°08'415.0
2018-Apr-23 12:19N 34°16' E 138°13'915.3
2018-Apr-23 11:43N 34°20' E 138°23'415.3
2018-Apr-23 11:28N 34°22' E 138°27'815.5
2018-Apr-23 10:58N 34°24' E 138°36'715.2
2018-Apr-23 10:30N 34°28' E 138°44'714.5
2018-Apr-23 10:00N 34°30' E 138°52'713.3
2018-Apr-23 09:30N 34°34' E 138°59'713.9
2018-Apr-23 09:00N 34°39' E 139°05'913.3
2018-Apr-23 08:22N 34°46' E 139°10'513.8
2018-Apr-23 08:00N 34°50' E 139°14'612.8
2018-Apr-23 07:30N 34°54' E 139°20'713.4
2018-Apr-23 07:00N 34°57' E 139°27'714.5
2018-Apr-23 06:31N 35°01' E 139°34'815.2
2018-Apr-23 06:00N 35°05' E 139°42'815.5
2018-Apr-23 05:30N 35°12' E 139°46'611.7
2018-Apr-23 05:00N 35°18' E 139°44'612.7
2018-Apr-23 04:31N 35°24' E 139°43'714.7
2018-Apr-23 04:01N 35°29' E 139°50'612.2
2018-Apr-23 03:30N 35°35' E 139°48'3 5.9
2018-Apr-23 02:58N 35°37' E 139°46'0 0.0
2018-Apr-23 02:19N 35°37' E 139°46'0 0.0
2018-Apr-23 01:34N 35°37' E 139°46'0 0.0
2018-Apr-23 01:28N 35°37' E 139°46'0 0.0
2018-Apr-23 00:58N 35°37' E 139°46'0 0.0
2018-Apr-23 00:22N 35°37' E 139°46'0 0.0
2018-Apr-22 23:58N 35°37' E 139°46'0 0.0
2018-Apr-22 23:07N 35°37' E 139°46'0 0.0
2018-Apr-22 22:58N 35°37' E 139°46'0 0.3
2018-Apr-22 22:30N 35°37' E 139°46'4 7.8
2018-Apr-22 22:00N 35°34' E 139°49'1 2.2
2018-Apr-22 21:29N 35°34' E 139°50'0 0.0
2018-Apr-22 20:59N 35°34' E 139°50'0 0.0
2018-Apr-22 20:29N 35°34' E 139°50'0 0.0
2018-Apr-22 19:59N 35°34' E 139°50'0 0.0
2018-Apr-22 19:29N 35°34' E 139°50'0 0.0
2018-Apr-22 18:59N 35°34' E 139°50'0 0.0
2018-Apr-22 18:29N 35°34' E 139°50'0 0.1
2018-Apr-22 17:59N 35°34' E 139°50'0 0.0
2018-Apr-22 17:29N 35°34' E 139°50'0 0.1
2018-Apr-22 16:59N 35°34' E 139°50'0 0.1
2018-Apr-22 16:29N 35°34' E 139°50'0 0.1
2018-Apr-22 15:59N 35°34' E 139°50'0 0.0
2018-Apr-22 15:29N 35°34' E 139°50'0 0.0
2018-Apr-22 14:59N 35°34' E 139°50'0 0.1
2018-Apr-22 14:29N 35°34' E 139°50'0 0.0
2018-Apr-22 13:59N 35°34' E 139°50'0 0.0
2018-Apr-22 13:29N 35°34' E 139°50'0 0.1
2018-Apr-22 12:59N 35°34' E 139°50'0 0.0
2018-Apr-22 12:29N 35°34' E 139°50'0 0.0
2018-Apr-22 11:59N 35°34' E 139°50'0 0.0
2018-Apr-22 11:29N 35°34' E 139°50'0 0.0
2018-Apr-22 10:59N 35°34' E 139°50'0 0.0
2018-Apr-22 10:29N 35°34' E 139°50'0 0.0
2018-Apr-22 09:59N 35°34' E 139°50'0 0.2
2018-Apr-22 09:30N 35°34' E 139°50'3 5.7
2018-Apr-22 09:00N 35°32' E 139°52'713.3
2018-Apr-22 08:31N 35°26' E 139°48'713.2
2018-Apr-22 08:00N 35°24' E 139°41'0 0.6
2018-Apr-22 07:29N 35°24' E 139°41'0 0.0
2018-Apr-22 06:59N 35°24' E 139°41'0 0.0
2018-Apr-22 06:29N 35°24' E 139°41'0 0.0
2018-Apr-22 05:59N 35°24' E 139°41'0 0.0
2018-Apr-22 05:29N 35°24' E 139°41'0 0.0
2018-Apr-22 04:59N 35°24' E 139°41'0 0.0
2018-Apr-22 04:29N 35°24' E 139°41'0 0.0
2018-Apr-22 03:59N 35°24' E 139°41'0 0.6
2018-Apr-22 03:30N 35°24' E 139°40'4 8.8
2018-Apr-22 03:00N 35°20' E 139°43'612.7
2018-Apr-22 02:30N 35°14' E 139°47'713.8
2018-Apr-22 02:00N 35°08' E 139°45'713.9
2018-Apr-22 01:30N 35°03' E 139°39'714.6
2018-Apr-22 01:00N 34°58' E 139°32'815.1
2018-Apr-22 00:30N 34°54' E 139°25'1316.0
2018-Apr-21 23:40N 34°44' E 139°13'516.6
2018-Apr-21 23:21N 34°40' E 139°09'1016.5
2018-Apr-21 22:44N 34°32' E 139°02'415.3
2018-Apr-21 22:30N 34°31' E 138°57'2216.0
2018-Apr-21 21:09N 34°31' E 138°31'615.8
2018-Apr-21 20:46N 34°31' E 138°24'2115.4
2018-Apr-21 19:24N 34°31' E 137°58'1415.8
2018-Apr-21 18:29N 34°32' E 137°41'815.2
2018-Apr-21 17:58N 34°31' E 137°31'814.9
2018-Apr-21 17:24N 34°31' E 137°21'615.3
2018-Apr-21 17:00N 34°31' E 137°14'2014.2
2018-Apr-21 15:37N 34°39' E 136°52'214.9
2018-Apr-21 15:28N 34°40' E 136°50'815.3
2018-Apr-21 14:57N 34°47' E 136°45'715.4
2018-Apr-21 14:30N 34°54' E 136°46'714.4
2018-Apr-21 14:00N 35°01' E 136°48'1 1.4
2018-Apr-21 13:30N 35°02' E 136°47'0 0.0
2018-Apr-21 13:00N 35°02' E 136°47'0 0.1
2018-Apr-21 12:30N 35°02' E 136°48'0 0.1
2018-Apr-21 12:00N 35°02' E 136°47'0 0.0
2018-Apr-21 11:30N 35°02' E 136°47'0 0.0
2018-Apr-21 11:00N 35°02' E 136°47'0 0.0
2018-Apr-21 10:30N 35°02' E 136°47'0 0.0
2018-Apr-21 10:00N 35°02' E 136°47'0 0.0
2018-Apr-21 09:30N 35°02' E 136°47'0 0.0
2018-Apr-21 09:00N 35°02' E 136°47'0 0.8
2018-Apr-21 08:30N 35°02' E 136°48'2 4.3
2018-Apr-21 08:00N 34°60' E 136°49'611.9
2018-Apr-21 07:30N 34°54' E 136°46'714.3
2018-Apr-21 07:00N 34°47' E 136°47'815.5
2018-Apr-21 06:31N 34°40' E 136°51'815.3
2018-Apr-21 05:58N 34°35' E 136°59'712.2
2018-Apr-21 05:26N 34°29' E 137°02'2614.3
2018-Apr-21 03:37N 34°06' E 136°48'215.8
2018-Apr-21 03:30N 34°04' E 136°47'4215.6
2018-Apr-21 00:48N 33°36' E 136°10'5812.9
2018-Apr-20 20:20N 33°47' E 135°02'515.6
2018-Apr-20 20:00N 33°52' E 134°60'815.8
2018-Apr-20 19:30N 34°00' E 134°58'815.4
2018-Apr-20 19:00N 34°08' E 134°58'815.6
2018-Apr-20 18:30N 34°16' E 134°58'714.7
2018-Apr-20 18:00N 34°22' E 135°01'815.3
2018-Apr-20 17:30N 34°28' E 135°08'715.0
2018-Apr-20 17:00N 34°33' E 135°14'612.4
2018-Apr-20 16:30N 34°40' E 135°15'0 0.8
2018-Apr-20 15:58N 34°40' E 135°14'0 0.0
2018-Apr-20 15:28N 34°40' E 135°14'0 0.0
2018-Apr-20 14:58N 34°40' E 135°14'0 0.0
2018-Apr-20 14:28N 34°40' E 135°14'0 0.0
2018-Apr-20 13:58N 34°40' E 135°14'0 0.0
2018-Apr-20 13:28N 34°40' E 135°14'0 0.0
2018-Apr-20 12:58N 34°40' E 135°14'0 0.1
2018-Apr-20 12:30N 34°40' E 135°14'2 4.2
2018-Apr-20 12:00N 34°39' E 135°16'2 3.8
2018-Apr-20 11:31N 34°38' E 135°18'612.5
2018-Apr-20 11:00N 34°39' E 135°26'0 0.4
2018-Apr-20 10:28N 34°39' E 135°26'0 0.0
2018-Apr-20 09:58N 34°39' E 135°26'0 0.0
2018-Apr-20 09:28N 34°39' E 135°26'0 0.0
2018-Apr-20 08:58N 34°39' E 135°26'0 0.0
2018-Apr-20 08:25N 34°39' E 135°26'0 0.0
2018-Apr-20 07:58N 34°39' E 135°26'0 0.0
2018-Apr-20 07:28N 34°39' E 135°26'0 0.0
2018-Apr-20 06:58N 34°39' E 135°26'0 0.0
2018-Apr-20 06:28N 34°39' E 135°26'0 0.0
2018-Apr-20 05:58N 34°39' E 135°26'0 0.1
2018-Apr-20 05:30N 34°39' E 135°26'4 7.5
2018-Apr-20 05:00N 34°37' E 135°22'714.8
2018-Apr-20 04:30N 34°32' E 135°15'714.6
2018-Apr-20 04:01N 34°27' E 135°09'714.8
2018-Apr-20 03:31N 34°22' E 135°03'714.6
2018-Apr-20 03:01N 34°15' E 134°59'714.1
2018-Apr-20 02:31N 34°08' E 134°57'714.9
2018-Apr-20 02:00N 34°01' E 134°58'714.8
2018-Apr-20 01:31N 33°54' E 134°55'814.6
2018-Apr-20 00:57N 33°46' E 134°53'613.7
2018-Apr-20 00:30N 33°41' E 134°48'713.9
2018-Apr-19 23:59N 33°36' E 134°42'57814.2
2018-Apr-18 07:14N 30°55' E 123°45'416.1
2018-Apr-18 06:59N 30°55' E 123°40'915.6
2018-Apr-18 06:25N 30°56' E 123°30'615.2
2018-Apr-18 06:00N 30°57' E 123°23'2314.6
2018-Apr-18 04:28N 31°03' E 122°58'613.9
2018-Apr-18 04:00N 31°04' E 122°50'1413.7
2018-Apr-18 02:57N 31°05' E 122°33'611.7
2018-Apr-18 02:25N 31°06' E 122°26'511.2
2018-Apr-18 01:56N 31°06' E 122°20'511.7
2018-Apr-18 01:30N 31°08' E 122°15'813.8
2018-Apr-18 00:57N 31°13' E 122°07'1114.8
2018-Apr-18 00:14N 31°16' E 121°55'313.8
2018-Apr-17 23:59N 31°16' E 121°51'1014.3
2018-Apr-17 23:19N 31°20' E 121°41'411.5
2018-Apr-17 23:00N 31°22' E 121°37'611.0
2018-Apr-17 22:28N 31°25' E 121°32'610.1
2018-Apr-17 21:53N 31°29' E 121°26'410.4
2018-Apr-17 21:30N 31°31' E 121°23'611.5
2018-Apr-17 21:00N 31°35' E 121°18'612.0
2018-Apr-17 20:29N 31°40' E 121°13'610.8
2018-Apr-17 19:57N 31°43' E 121°07'810.1
2018-Apr-17 19:10N 31°47' E 120°59'2 9.8
2018-Apr-17 18:59N 31°47' E 120°57'23 1.7
2018-Apr-17 05:07N 32°00' E 120°35'215.0
2018-Apr-17 04:58N 32°01' E 120°32'4 9.5
2018-Apr-17 04:30N 31°60' E 120°27'3 2.4
2018-Apr-17 03:23N 31°58' E 120°25'0 0.0
2018-Apr-17 02:59N 31°58' E 120°25'0 0.0
2018-Apr-17 02:20N 31°58' E 120°25'0 0.0
2018-Apr-17 01:44N 31°58' E 120°25'0 0.0
2018-Apr-17 01:23N 31°58' E 120°25'0 0.0
2018-Apr-17 00:41N 31°58' E 120°25'0 0.0
2018-Apr-17 00:29N 31°58' E 120°25'0 0.0
2018-Apr-16 23:47N 31°58' E 120°25'0 0.0
2018-Apr-16 22:56N 31°58' E 120°25'0 0.0
2018-Apr-16 22:26N 31°58' E 120°25'0 0.0
2018-Apr-16 21:50N 31°58' E 120°25'0 0.0
2018-Apr-16 20:44N 31°58' E 120°25'0 0.0
2018-Apr-16 20:26N 31°58' E 120°25'0 0.0
2018-Apr-16 19:59N 31°58' E 120°25'0 0.0
2018-Apr-16 19:29N 31°58' E 120°25'0 0.0
2018-Apr-16 18:50N 31°58' E 120°25'0 0.0
2018-Apr-16 18:26N 31°58' E 120°25'0 0.0
2018-Apr-16 17:56N 31°58' E 120°25'0 0.0
2018-Apr-16 17:20N 31°58' E 120°25'0 0.0
2018-Apr-16 16:56N 31°58' E 120°25'0 0.0
2018-Apr-16 16:17N 31°58' E 120°25'0 0.0
2018-Apr-16 15:53N 31°58' E 120°25'0 0.0
2018-Apr-16 15:23N 31°58' E 120°25'0 0.0
2018-Apr-16 14:47N 31°58' E 120°25'0 0.0
2018-Apr-16 14:23N 31°58' E 120°25'0 0.0
2018-Apr-16 12:38N 31°58' E 120°25'0 0.0
2018-Apr-16 12:26N 31°58' E 120°25'0 0.0
2018-Apr-16 11:35N 31°58' E 120°25'0 0.0
2018-Apr-16 11:29N 31°58' E 120°25'0 0.0
2018-Apr-16 10:59N 31°58' E 120°25'0 0.0
2018-Apr-16 10:29N 31°58' E 120°25'  
Track history (hours):
 
Tides and Currents Weather Stations Pressure Air Temp Water Temp Dewpoint Dewpoint Depression Visibility Wind Speed Wind Dir Waves Ship Positions

Sinotrans Osaka

Last reported at 2018-Apr-25 15:26 UTC. Time now 2018-Apr-25 21:49 UTC.
Position N 35°01' E 129°07'.

Length 145 m; draft 7.5 m.

Type: Cargo ship. MMSI: 477107900.

Date/timePositionNaut miles runAvg speedWind from/ knotsBaromVisibWave heightAir tempDewpointWater temp
2018-Apr-25 15:26N 35°01' E 129°07'511.4
2018-Apr-25 15:00N 35°06' E 129°05'0 0.8
2018-Apr-25 14:30N 35°06' E 129°05'0 0.0
2018-Apr-25 14:00N 35°06' E 129°05'0 0.0
2018-Apr-25 13:30N 35°06' E 129°05'0 0.0
2018-Apr-25 13:00N 35°06' E 129°05'0 0.0
2018-Apr-25 12:30N 35°06' E 129°05'0 0.0
2018-Apr-25 12:00N 35°06' E 129°05'0 0.0
2018-Apr-25 11:27N 35°06' E 129°05'0 0.0
2018-Apr-25 11:00N 35°06' E 129°05'0 0.0
2018-Apr-25 10:30N 35°06' E 129°05'0 0.0
2018-Apr-25 09:57N 35°06' E 129°05'0 0.0
2018-Apr-25 09:27N 35°06' E 129°05'0 0.0
2018-Apr-25 09:00N 35°06' E 129°05'0 0.0
2018-Apr-25 08:30N 35°06' E 129°05'0 0.0
2018-Apr-25 08:00N 35°06' E 129°05'0 0.0
2018-Apr-25 07:27N 35°06' E 129°05'0 0.0
2018-Apr-25 06:57N 35°06' E 129°05'0 0.0
2018-Apr-25 06:30N 35°06' E 129°05'0 0.2
2018-Apr-25 06:00N 35°06' E 129°05'4 6.7
2018-Apr-25 05:27N 35°04' E 129°08'1 2.6
2018-Apr-25 05:00N 35°04' E 129°10'6110.2
2018-Apr-24 23:05N 34°32' E 130°12'213.5
2018-Apr-24 22:55N 34°30' E 130°14'513.4
2018-Apr-24 22:30N 34°26' E 130°18'713.4
2018-Apr-24 22:00N 34°21' E 130°23'713.5
2018-Apr-24 21:30N 34°16' E 130°29'713.5
2018-Apr-24 21:00N 34°12' E 130°35'713.6
2018-Apr-24 20:30N 34°07' E 130°42'714.2
2018-Apr-24 20:00N 34°03' E 130°48'713.1
2018-Apr-24 19:30N 33°57' E 130°52'510.4
2018-Apr-24 19:00N 33°58' E 130°58'713.6
2018-Apr-24 18:30N 33°56' E 131°06'815.1
2018-Apr-24 18:00N 33°52' E 131°13'815.5
2018-Apr-24 17:30N 33°50' E 131°22'815.3
2018-Apr-24 17:00N 33°49' E 131°31'815.1
2018-Apr-24 16:30N 33°47' E 131°40'612.3
2018-Apr-24 16:00N 33°42' E 131°45'714.2
2018-Apr-24 15:30N 33°36' E 131°49'714.2
2018-Apr-24 15:00N 33°30' E 131°54'714.0
2018-Apr-24 14:30N 33°24' E 131°57'713.9
2018-Apr-24 14:00N 33°18' E 132°01'713.9
2018-Apr-24 13:30N 33°12' E 132°06'64 9.2
2018-Apr-24 06:34N 32°45' E 133°15'26014.5
2018-Apr-23 12:37N 34°14' E 138°08'415.0
2018-Apr-23 12:19N 34°16' E 138°13'915.3
2018-Apr-23 11:43N 34°20' E 138°23'415.3
2018-Apr-23 11:28N 34°22' E 138°27'815.5
2018-Apr-23 10:58N 34°24' E 138°36'715.2
2018-Apr-23 10:30N 34°28' E 138°44'714.5
2018-Apr-23 10:00N 34°30' E 138°52'713.3
2018-Apr-23 09:30N 34°34' E 138°59'713.9
2018-Apr-23 09:00N 34°39' E 139°05'913.3
2018-Apr-23 08:22N 34°46' E 139°10'513.8
2018-Apr-23 08:00N 34°50' E 139°14'612.8
2018-Apr-23 07:30N 34°54' E 139°20'713.4
2018-Apr-23 07:00N 34°57' E 139°27'714.5
2018-Apr-23 06:31N 35°01' E 139°34'815.2
2018-Apr-23 06:00N 35°05' E 139°42'815.5
2018-Apr-23 05:30N 35°12' E 139°46'611.7
2018-Apr-23 05:00N 35°18' E 139°44'612.7
2018-Apr-23 04:31N 35°24' E 139°43'714.7
2018-Apr-23 04:01N 35°29' E 139°50'612.2
2018-Apr-23 03:30N 35°35' E 139°48'3 5.9
2018-Apr-23 02:58N 35°37' E 139°46'0 0.0
2018-Apr-23 02:19N 35°37' E 139°46'0 0.0
2018-Apr-23 01:34N 35°37' E 139°46'0 0.0
2018-Apr-23 01:28N 35°37' E 139°46'0 0.0
2018-Apr-23 00:58N 35°37' E 139°46'0 0.0
2018-Apr-23 00:22N 35°37' E 139°46'0 0.0
2018-Apr-22 23:58N 35°37' E 139°46'0 0.0
2018-Apr-22 23:07N 35°37' E 139°46'0 0.0
2018-Apr-22 22:58N 35°37' E 139°46'0 0.3
2018-Apr-22 22:30N 35°37' E 139°46'4 7.8
2018-Apr-22 22:00N 35°34' E 139°49'1 2.2
2018-Apr-22 21:29N 35°34' E 139°50'0 0.0
2018-Apr-22 20:59N 35°34' E 139°50'0 0.0
2018-Apr-22 20:29N 35°34' E 139°50'0 0.0
2018-Apr-22 19:59N 35°34' E 139°50'0 0.0
2018-Apr-22 19:29N 35°34' E 139°50'0 0.0
2018-Apr-22 18:59N 35°34' E 139°50'0 0.0
2018-Apr-22 18:29N 35°34' E 139°50'0 0.1
2018-Apr-22 17:59N 35°34' E 139°50'0 0.0
2018-Apr-22 17:29N 35°34' E 139°50'0 0.1
2018-Apr-22 16:59N 35°34' E 139°50'0 0.1
2018-Apr-22 16:29N 35°34' E 139°50'0 0.1
2018-Apr-22 15:59N 35°34' E 139°50'0 0.0
2018-Apr-22 15:29N 35°34' E 139°50'0 0.0
2018-Apr-22 14:59N 35°34' E 139°50'0 0.1
2018-Apr-22 14:29N 35°34' E 139°50'0 0.0
2018-Apr-22 13:59N 35°34' E 139°50'0 0.0
2018-Apr-22 13:29N 35°34' E 139°50'0 0.1
2018-Apr-22 12:59N 35°34' E 139°50'0 0.0
2018-Apr-22 12:29N 35°34' E 139°50'0 0.0
2018-Apr-22 11:59N 35°34' E 139°50'0 0.0
2018-Apr-22 11:29N 35°34' E 139°50'0 0.0
2018-Apr-22 10:59N 35°34' E 139°50'0 0.0
2018-Apr-22 10:29N 35°34' E 139°50'0 0.0
2018-Apr-22 09:59N 35°34' E 139°50'0 0.2
2018-Apr-22 09:30N 35°34' E 139°50'3 5.7
2018-Apr-22 09:00N 35°32' E 139°52'713.3
2018-Apr-22 08:31N 35°26' E 139°48'713.2
2018-Apr-22 08:00N 35°24' E 139°41'0 0.6
2018-Apr-22 07:29N 35°24' E 139°41'0 0.0
2018-Apr-22 06:59N 35°24' E 139°41'0 0.0
2018-Apr-22 06:29N 35°24' E 139°41'0 0.0
2018-Apr-22 05:59N 35°24' E 139°41'0 0.0
2018-Apr-22 05:29N 35°24' E 139°41'0 0.0
2018-Apr-22 04:59N 35°24' E 139°41'0 0.0
2018-Apr-22 04:29N 35°24' E 139°41'0 0.0
2018-Apr-22 03:59N 35°24' E 139°41'0 0.6
2018-Apr-22 03:30N 35°24' E 139°40'4 8.8
2018-Apr-22 03:00N 35°20' E 139°43'612.7
2018-Apr-22 02:30N 35°14' E 139°47'713.8
2018-Apr-22 02:00N 35°08' E 139°45'713.9
2018-Apr-22 01:30N 35°03' E 139°39'714.6
2018-Apr-22 01:00N 34°58' E 139°32'815.1
2018-Apr-22 00:30N 34°54' E 139°25'1316.0
2018-Apr-21 23:40N 34°44' E 139°13'516.6
2018-Apr-21 23:21N 34°40' E 139°09'1016.5
2018-Apr-21 22:44N 34°32' E 139°02'415.3
2018-Apr-21 22:30N 34°31' E 138°57'2216.0
2018-Apr-21 21:09N 34°31' E 138°31'615.8
2018-Apr-21 20:46N 34°31' E 138°24'2115.4
2018-Apr-21 19:24N 34°31' E 137°58'1415.8
2018-Apr-21 18:29N 34°32' E 137°41'815.2
2018-Apr-21 17:58N 34°31' E 137°31'814.9
2018-Apr-21 17:24N 34°31' E 137°21'615.3
2018-Apr-21 17:00N 34°31' E 137°14'2014.2
2018-Apr-21 15:37N 34°39' E 136°52'214.9
2018-Apr-21 15:28N 34°40' E 136°50'815.3
2018-Apr-21 14:57N 34°47' E 136°45'715.4
2018-Apr-21 14:30N 34°54' E 136°46'714.4
2018-Apr-21 14:00N 35°01' E 136°48'1 1.4
2018-Apr-21 13:30N 35°02' E 136°47'0 0.0
2018-Apr-21 13:00N 35°02' E 136°47'0 0.1
2018-Apr-21 12:30N 35°02' E 136°48'0 0.1
2018-Apr-21 12:00N 35°02' E 136°47'0 0.0
2018-Apr-21 11:30N 35°02' E 136°47'0 0.0
2018-Apr-21 11:00N 35°02' E 136°47'0 0.0
2018-Apr-21 10:30N 35°02' E 136°47'0 0.0
2018-Apr-21 10:00N 35°02' E 136°47'0 0.0
2018-Apr-21 09:30N 35°02' E 136°47'0 0.0
2018-Apr-21 09:00N 35°02' E 136°47'0 0.8
2018-Apr-21 08:30N 35°02' E 136°48'2 4.3
2018-Apr-21 08:00N 34°60' E 136°49'611.9
2018-Apr-21 07:30N 34°54' E 136°46'714.3
2018-Apr-21 07:00N 34°47' E 136°47'815.5
2018-Apr-21 06:31N 34°40' E 136°51'815.3
2018-Apr-21 05:58N 34°35' E 136°59'712.2
2018-Apr-21 05:26N 34°29' E 137°02'2614.3
2018-Apr-21 03:37N 34°06' E 136°48'215.8
2018-Apr-21 03:30N 34°04' E 136°47'4215.6
2018-Apr-21 00:48N 33°36' E 136°10'5812.9
2018-Apr-20 20:20N 33°47' E 135°02'515.6
2018-Apr-20 20:00N 33°52' E 134°60'815.8
2018-Apr-20 19:30N 34°00' E 134°58'815.4
2018-Apr-20 19:00N 34°08' E 134°58'815.6
2018-Apr-20 18:30N 34°16' E 134°58'714.7
2018-Apr-20 18:00N 34°22' E 135°01'815.3
2018-Apr-20 17:30N 34°28' E 135°08'715.0
2018-Apr-20 17:00N 34°33' E 135°14'612.4
2018-Apr-20 16:30N 34°40' E 135°15'0 0.8
2018-Apr-20 15:58N 34°40' E 135°14'0 0.0
2018-Apr-20 15:28N 34°40' E 135°14'0 0.0
2018-Apr-20 14:58N 34°40' E 135°14'0 0.0
2018-Apr-20 14:28N 34°40' E 135°14'0 0.0
2018-Apr-20 13:58N 34°40' E 135°14'0 0.0
2018-Apr-20 13:28N 34°40' E 135°14'0 0.0
2018-Apr-20 12:58N 34°40' E 135°14'0 0.1
2018-Apr-20 12:30N 34°40' E 135°14'2 4.2
2018-Apr-20 12:00N 34°39' E 135°16'2 3.8
2018-Apr-20 11:31N 34°38' E 135°18'612.5
2018-Apr-20 11:00N 34°39' E 135°26'0 0.4
2018-Apr-20 10:28N 34°39' E 135°26'0 0.0
2018-Apr-20 09:58N 34°39' E 135°26'0 0.0
2018-Apr-20 09:28N 34°39' E 135°26'0 0.0
2018-Apr-20 08:58N 34°39' E 135°26'0 0.0
2018-Apr-20 08:25N 34°39' E 135°26'0 0.0
2018-Apr-20 07:58N 34°39' E 135°26'0 0.0
2018-Apr-20 07:28N 34°39' E 135°26'0 0.0
2018-Apr-20 06:58N 34°39' E 135°26'0 0.0
2018-Apr-20 06:28N 34°39' E 135°26'0 0.0
2018-Apr-20 05:58N 34°39' E 135°26'0 0.1
2018-Apr-20 05:30N 34°39' E 135°26'4 7.5
2018-Apr-20 05:00N 34°37' E 135°22'714.8
2018-Apr-20 04:30N 34°32' E 135°15'714.6
2018-Apr-20 04:01N 34°27' E 135°09'714.8
2018-Apr-20 03:31N 34°22' E 135°03'714.6
2018-Apr-20 03:01N 34°15' E 134°59'714.1
2018-Apr-20 02:31N 34°08' E 134°57'714.9
2018-Apr-20 02:00N 34°01' E 134°58'714.8
2018-Apr-20 01:31N 33°54' E 134°55'814.6
2018-Apr-20 00:57N 33°46' E 134°53'613.7
2018-Apr-20 00:30N 33°41' E 134°48'713.9
2018-Apr-19 23:59N 33°36' E 134°42'57814.2
2018-Apr-18 07:14N 30°55' E 123°45'416.1
2018-Apr-18 06:59N 30°55' E 123°40'915.6
2018-Apr-18 06:25N 30°56' E 123°30'615.2
2018-Apr-18 06:00N 30°57' E 123°23'2314.6
2018-Apr-18 04:28N 31°03' E 122°58'613.9
2018-Apr-18 04:00N 31°04' E 122°50'1413.7
2018-Apr-18 02:57N 31°05' E 122°33'611.7
2018-Apr-18 02:25N 31°06' E 122°26'511.2
2018-Apr-18 01:56N 31°06' E 122°20'511.7
2018-Apr-18 01:30N 31°08' E 122°15'813.8
2018-Apr-18 00:57N 31°13' E 122°07'1114.8
2018-Apr-18 00:14N 31°16' E 121°55'313.8
2018-Apr-17 23:59N 31°16' E 121°51'1014.3
2018-Apr-17 23:19N 31°20' E 121°41'411.5
2018-Apr-17 23:00N 31°22' E 121°37'611.0
2018-Apr-17 22:28N 31°25' E 121°32'610.1
2018-Apr-17 21:53N 31°29' E 121°26'410.4
2018-Apr-17 21:30N 31°31' E 121°23'611.5
2018-Apr-17 21:00N 31°35' E 121°18'612.0
2018-Apr-17 20:29N 31°40' E 121°13'610.8
2018-Apr-17 19:57N 31°43' E 121°07'810.1
2018-Apr-17 19:10N 31°47' E 120°59'2 9.8
2018-Apr-17 18:59N 31°47' E 120°57'23 1.7
2018-Apr-17 05:07N 32°00' E 120°35'215.0
2018-Apr-17 04:58N 32°01' E 120°32'4 9.5
2018-Apr-17 04:30N 31°60' E 120°27'3 2.4
2018-Apr-17 03:23N 31°58' E 120°25'0 0.0
2018-Apr-17 02:59N 31°58' E 120°25'0 0.0
2018-Apr-17 02:20N 31°58' E 120°25'0 0.0
2018-Apr-17 01:44N 31°58' E 120°25'0 0.0
2018-Apr-17 01:23N 31°58' E 120°25'0 0.0
2018-Apr-17 00:41N 31°58' E 120°25'0 0.0
2018-Apr-17 00:29N 31°58' E 120°25'0 0.0
2018-Apr-16 23:47N 31°58' E 120°25'0 0.0
2018-Apr-16 22:56N 31°58' E 120°25'0 0.0
2018-Apr-16 22:26N 31°58' E 120°25'0 0.0
2018-Apr-16 21:50N 31°58' E 120°25'0 0.0
2018-Apr-16 20:44N 31°58' E 120°25'0 0.0
2018-Apr-16 20:26N 31°58' E 120°25'0 0.0
2018-Apr-16 19:59N 31°58' E 120°25'0 0.0
2018-Apr-16 19:29N 31°58' E 120°25'0 0.0
2018-Apr-16 18:50N 31°58' E 120°25'0 0.0
2018-Apr-16 18:26N 31°58' E 120°25'0 0.0
2018-Apr-16 17:56N 31°58' E 120°25'0 0.0
2018-Apr-16 17:20N 31°58' E 120°25'0 0.0
2018-Apr-16 16:56N 31°58' E 120°25'0 0.0
2018-Apr-16 16:17N 31°58' E 120°25'0 0.0
2018-Apr-16 15:53N 31°58' E 120°25'0 0.0
2018-Apr-16 15:23N 31°58' E 120°25'0 0.0
2018-Apr-16 14:47N 31°58' E 120°25'0 0.0
2018-Apr-16 14:23N 31°58' E 120°25'0 0.0
2018-Apr-16 12:38N 31°58' E 120°25'0 0.0
2018-Apr-16 12:26N 31°58' E 120°25'0 0.0
2018-Apr-16 11:35N 31°58' E 120°25'0 0.0
2018-Apr-16 11:29N 31°58' E 120°25'0 0.0
2018-Apr-16 10:59N 31°58' E 120°25'0 0.0
2018-Apr-16 10:29N 31°58' E 120°25'  

Dump ship's entire track history